Thunder radar more information blitzortung!


Radar de pluja more information rain snow radar


Visita la nostra xarxa de llocs de meteo:

Template documentation
and downloads

And another site



Extreme low temperature From: 13-12-2017 09:00 Until: 09:59 warning for: Extreme low temperature Level: Yellow info button

Pagina Historial Weather Underground text

Diari Resum Marc 24, 2016 Unitats:  Mètric    Imperial   Tant
« Previous Dia
SegĂźent Dia »
Diari Setmana Mensual Anual Personalitzada
  Maxima: Minima: Media:
Temperatura: 18.1 °C 5.4 °C 12.3 °C
Punt de rosada: 7.2 °C -3.4 °C 3.4 °C
Humitat: 74 % 42 % 55 %
Wind Speed: 24.1 km/h 0.0 km/h 6.2 km/h
RĂ fegues de vent: 24.1 km/h - -
Vent:- - SW
Pression baro: 1018.8 hPa 1008.0 hPa -
Precipitacions: 0.0 mm    
Historical Graphs
 
 
Dades de taula per Marc 24, 2016
Temps Temperatura Punt de rosada Pression baro Vent Wind Speed RĂ fegues de vent Humitat Rainfall Rate (Hourly)
00:00 6.4 °C -2.8 °C 1010.0 hPa West 1.6 km/h 4.8 km/h 52 % 0.0 mm
00:04 9.2 °C -3.1 °C 1008.0 hPa WSW 2.3 km/h 2.3 km/h 42 % 0.0 mm
00:10 6.3 °C -2.8 °C 1009.0 hPa WSW 1.6 km/h 3.2 km/h 52 % 0.0 mm
00:20 6.2 °C -2.9 °C 1009.0 hPa WSW 1.6 km/h 4.8 km/h 52 % 0.0 mm
00:30 6.1 °C -3.1 °C 1010.0 hPa WSW 3.2 km/h 4.8 km/h 52 % 0.0 mm
00:40 6.6 °C -2.3 °C 1010.0 hPa WSW 1.6 km/h 3.2 km/h 53 % 0.0 mm
00:50 5.9 °C -2.9 °C 1010.0 hPa ENE 4.8 km/h 4.8 km/h 53 % 0.0 mm
01:00 5.4 °C -3.4 °C 1011.7 hPa East 3.2 km/h 8.0 km/h 53 % 0.0 mm
01:10 5.6 °C -3.2 °C 1011.7 hPa ESE 1.6 km/h 3.2 km/h 53 % 0.0 mm
01:20 6.2 °C -2.7 °C 1011.7 hPa West 1.6 km/h 3.2 km/h 53 % 0.0 mm
01:30 6.1 °C -2.8 °C 1011.7 hPa WSW 3.2 km/h 4.8 km/h 53 % 0.0 mm
01:40 6.4 °C -2.5 °C 1011.7 hPa WSW 3.2 km/h 6.4 km/h 53 % 0.0 mm
01:50 7.1 °C -1.8 °C 1011.7 hPa Calm   1.6 km/h 53 % 0.0 mm
02:00 8.0 °C -1.0 °C 1010.7 hPa ENE 3.2 km/h 3.2 km/h 53 % 0.0 mm
02:10 8.3 °C -1.0 °C 1011.7 hPa Calm   4.8 km/h 52 % 0.0 mm
02:20 8.8 °C -0.6 °C 1011.7 hPa NE 3.2 km/h 4.8 km/h 52 % 0.0 mm
02:30 9.3 °C -0.1 °C 1012.8 hPa ENE 1.6 km/h 3.2 km/h 52 % 0.0 mm
02:40 9.7 °C 0.3 °C 1013.8 hPa ENE 4.8 km/h 4.8 km/h 52 % 0.0 mm
03:00 10.7 °C 0.9 °C 1013.8 hPa WNW 3.2 km/h 8.0 km/h 51 % 0.0 mm
03:10 10.6 °C 0.9 °C 1013.8 hPa ENE 8.0 km/h 8.0 km/h 51 % 0.0 mm
03:20 11.1 °C 1.3 °C 1013.8 hPa ESE 3.2 km/h 6.4 km/h 51 % 0.0 mm
03:30 11.8 °C 2.0 °C 1013.8 hPa WSW 1.6 km/h 6.4 km/h 51 % 0.0 mm
03:40 12.4 °C 2.3 °C 1013.8 hPa West 1.6 km/h 3.2 km/h 50 % 0.0 mm
03:50 12.6 °C 2.4 °C 1013.8 hPa WSW 1.6 km/h 4.8 km/h 50 % 0.0 mm
04:00 13.2 °C 2.7 °C 1014.8 hPa West 4.8 km/h 4.8 km/h 49 % 0.0 mm
04:10 13.0 °C 2.5 °C 1013.8 hPa WNW 3.2 km/h 4.8 km/h 49 % 0.0 mm
04:20 13.4 °C 3.2 °C 1013.8 hPa WSW 3.2 km/h 6.4 km/h 50 % 0.0 mm
04:30 14.1 °C 3.8 °C 1014.8 hPa SW 3.2 km/h 8.0 km/h 50 % 0.0 mm
04:40 14.1 °C 4.1 °C 1014.8 hPa SW 4.8 km/h 6.4 km/h 51 % 0.0 mm
04:50 14.2 °C 4.2 °C 1014.8 hPa SW 9.7 km/h 11.3 km/h 51 % 0.0 mm
05:00 14.4 °C 4.4 °C 1014.8 hPa SW 8.0 km/h 11.3 km/h 51 % 0.0 mm
05:10 14.7 °C 4.7 °C 1014.8 hPa SW 3.2 km/h 12.9 km/h 51 % 0.0 mm
05:20 14.8 °C 4.8 °C 1014.8 hPa SW 3.2 km/h 12.9 km/h 51 % 0.0 mm
05:30 15.0 °C 4.9 °C 1014.8 hPa SW 3.2 km/h 12.9 km/h 51 % 0.0 mm
05:40 15.2 °C 4.8 °C 1014.8 hPa SW 8.0 km/h 9.7 km/h 50 % 0.0 mm
05:50 15.7 °C 5.0 °C 1014.8 hPa SW 4.8 km/h 9.7 km/h 49 % 0.0 mm
06:00 16.2 °C 5.4 °C 1014.8 hPa WSW 4.8 km/h 8.0 km/h 49 % 0.0 mm
06:10 16.0 °C 5.3 °C 1014.8 hPa WSW 3.2 km/h 12.9 km/h 49 % 0.0 mm
06:20 16.7 °C 6.2 °C 1014.8 hPa SW 9.7 km/h 9.7 km/h 50 % 0.0 mm
06:30 16.4 °C 5.7 °C 1014.8 hPa SW 9.7 km/h 16.1 km/h 49 % 0.0 mm
06:40 16.9 °C 6.1 °C 1014.8 hPa SW 11.3 km/h 11.3 km/h 49 % 0.0 mm
06:50 17.0 °C 6.2 °C 1014.8 hPa WSW 4.8 km/h 9.7 km/h 49 % 0.0 mm
07:00 17.0 °C 5.9 °C 1014.8 hPa SW 3.2 km/h 12.9 km/h 48 % 0.0 mm
07:10 17.0 °C 5.9 °C 1014.8 hPa SW 8.0 km/h 12.9 km/h 48 % 0.0 mm
07:20 17.6 °C 6.8 °C 1014.8 hPa SW 9.7 km/h 9.7 km/h 49 % 0.0 mm
07:30 17.5 °C 6.7 °C 1014.8 hPa SW 12.9 km/h 12.9 km/h 49 % 0.0 mm
07:40 17.7 °C 6.8 °C 1014.8 hPa SSW 11.3 km/h 11.3 km/h 49 % 0.0 mm
07:50 17.2 °C 6.4 °C 1014.8 hPa SW 9.7 km/h 12.9 km/h 49 % 0.0 mm
08:00 16.8 °C 6.3 °C 1014.8 hPa WSW 11.3 km/h 16.1 km/h 50 % 0.0 mm
08:10 17.3 °C 6.5 °C 1014.8 hPa SW 8.0 km/h 16.1 km/h 49 % 0.0 mm
08:20 17.4 °C 6.6 °C 1014.8 hPa SW 9.7 km/h 12.9 km/h 49 % 0.0 mm
08:30 17.4 °C 6.6 °C 1013.8 hPa SW 4.8 km/h 11.3 km/h 49 % 0.0 mm
14:32 17.4 °C 6.6 °C 1013.8 hPa SW 5.6 km/h 9.7 km/h 49 % 0.0 mm
14:37 17.7 °C 6.8 °C 1013.8 hPa SSW 13.0 km/h 13.0 km/h 49 % 0.0 mm
14:42 18.0 °C 7.1 °C 1013.8 hPa West 6.4 km/h 6.4 km/h 49 % 0.0 mm
14:47 17.6 °C 6.8 °C 1013.8 hPa WSW 13.0 km/h 13.0 km/h 49 % 0.0 mm
14:52 17.5 °C 6.3 °C 1013.8 hPa SSW 13.0 km/h 13.0 km/h 48 % 0.0 mm
14:57 17.6 °C 6.4 °C 1013.8 hPa SW 24.1 km/h 24.1 km/h 48 % 0.0 mm
15:02 18.1 °C 7.2 °C 1013.8 hPa WSW 9.3 km/h 9.3 km/h 49 % 0.0 mm
15:07 18.1 °C 6.9 °C 1013.8 hPa SW 13.0 km/h 13.0 km/h 48 % 0.0 mm
15:12 17.9 °C 6.7 °C 1013.8 hPa SSW 9.3 km/h 9.3 km/h 48 % 0.0 mm
15:17 17.6 °C 6.2 °C 1013.8 hPa WSW 18.5 km/h 18.5 km/h 47 % 0.0 mm
15:22 17.5 °C 6.1 °C 1013.8 hPa West 16.7 km/h 16.7 km/h 47 % 0.0 mm
15:27 17.9 °C 6.4 °C 1013.8 hPa SSW 7.4 km/h 7.4 km/h 47 % 0.0 mm
15:32 17.7 °C 6.2 °C 1013.8 hPa WSW 11.1 km/h 11.1 km/h 47 % 0.0 mm
15:37 17.7 °C 5.9 °C 1013.8 hPa WSW 16.7 km/h 16.7 km/h 46 % 0.0 mm
15:47 17.8 °C 6.0 °C 1013.8 hPa SE 11.1 km/h 11.1 km/h 46 % 0.0 mm
15:57 17.5 °C 5.4 °C 1013.8 hPa South 14.8 km/h 14.8 km/h 45 % 0.0 mm
16:02 17.2 °C 5.2 °C 1013.8 hPa WSW 15.1 km/h 15.1 km/h 45 % 0.0 mm
16:07 17.3 °C 4.9 °C 1013.8 hPa SW 16.7 km/h 16.7 km/h 44 % 0.0 mm
16:12 17.7 °C 5.6 °C 1013.8 hPa WSW 9.3 km/h 9.3 km/h 45 % 0.0 mm
16:17 17.7 °C 5.3 °C 1013.8 hPa SW 13.0 km/h 13.0 km/h 44 % 0.0 mm
16:22 18.0 °C 5.6 °C 1013.8 hPa WSW 11.1 km/h 11.1 km/h 44 % 0.0 mm
16:27 17.2 °C 4.5 °C 1013.8 hPa SW 20.4 km/h 20.4 km/h 43 % 0.0 mm
16:32 17.2 °C 4.5 °C 1013.8 hPa SW 16.7 km/h 16.7 km/h 43 % 0.0 mm
16:37 17.5 °C 4.8 °C 1013.8 hPa SW 11.1 km/h 11.1 km/h 43 % 0.0 mm
16:42 17.3 °C 4.6 °C 1013.8 hPa WNW 16.7 km/h 16.7 km/h 43 % 0.0 mm
16:47 17.4 °C 4.7 °C 1013.8 hPa SW 9.3 km/h 9.3 km/h 43 % 0.0 mm
16:52 17.8 °C 5.4 °C 1014.8 hPa South 4.2 km/h 4.2 km/h 44 % 0.0 mm
16:57 17.5 °C 4.8 °C 1014.8 hPa SW 14.8 km/h 14.8 km/h 43 % 0.0 mm
17:02 17.2 °C 4.5 °C 1014.8 hPa West 11.1 km/h 11.1 km/h 43 % 0.0 mm
17:07 17.0 °C 4.3 °C 1014.8 hPa SW 21.7 km/h 21.7 km/h 43 % 0.0 mm
17:12 17.0 °C 4.3 °C 1014.8 hPa SSW 9.3 km/h 9.3 km/h 43 % 0.0 mm
17:17 17.1 °C 4.4 °C 1014.8 hPa West 7.4 km/h 7.4 km/h 43 % 0.0 mm
17:22 16.8 °C 4.2 °C 1014.8 hPa SW 11.1 km/h 11.1 km/h 43 % 0.0 mm
17:27 16.8 °C 4.2 °C 1014.8 hPa SW 13.0 km/h 13.0 km/h 43 % 0.0 mm
17:32 16.7 °C 4.1 °C 1014.8 hPa West 7.4 km/h 7.4 km/h 43 % 0.0 mm
17:37 16.9 °C 4.6 °C 1015.8 hPa SW 6.9 km/h 6.9 km/h 44 % 0.0 mm
17:42 16.8 °C 4.2 °C 1015.8 hPa SW 11.1 km/h 11.1 km/h 43 % 0.0 mm
17:47 16.7 °C 4.1 °C 1015.8 hPa West 14.8 km/h 14.8 km/h 43 % 0.0 mm
17:52 16.6 °C 3.9 °C 1015.8 hPa SW 7.9 km/h 7.9 km/h 43 % 0.0 mm
17:57 16.5 °C 3.9 °C 1015.8 hPa WSW 7.4 km/h 7.4 km/h 43 % 0.0 mm
18:02 16.5 °C 3.9 °C 1015.8 hPa SW 7.4 km/h 7.4 km/h 43 % 0.0 mm
18:07 16.1 °C 3.5 °C 1015.8 hPa SW 11.1 km/h 11.1 km/h 43 % 0.0 mm
18:12 15.6 °C 3.4 °C 1015.8 hPa SSW 8.7 km/h 8.7 km/h 44 % 0.0 mm
18:17 15.4 °C 3.2 °C 1015.8 hPa West 7.4 km/h 7.4 km/h 44 % 0.0 mm
18:22 15.1 °C 3.2 °C 1015.8 hPa SW 9.5 km/h 9.5 km/h 45 % 0.0 mm
18:27 15.0 °C 3.4 °C 1015.8 hPa SSW 7.4 km/h 7.4 km/h 46 % 0.0 mm
18:32 14.8 °C 3.3 °C 1015.8 hPa WSW 9.3 km/h 9.3 km/h 46 % 0.0 mm
18:47 14.0 °C 3.7 °C 1015.8 hPa SW 9.3 km/h 9.7 km/h 50 % 0.0 mm
18:50 9.0 °C 3.2 °C 1018.8 hPa WSW 1.6 km/h 3.2 km/h 67 % 0.0 mm
18:52 13.9 °C 3.6 °C 1015.8 hPa SW 9.3 km/h 9.3 km/h 50 % 0.0 mm
18:57 13.6 °C 3.7 °C 1015.8 hPa SSW 6.4 km/h 6.4 km/h 51 % 0.0 mm
19:00 8.9 °C 3.5 °C 1018.8 hPa WSW 1.6 km/h 3.2 km/h 69 % 0.0 mm
19:02 13.4 °C 3.4 °C 1015.8 hPa SW 7.4 km/h 7.4 km/h 51 % 0.0 mm
19:07 13.3 °C 3.7 °C 1015.8 hPa SSW 3.9 km/h 3.9 km/h 52 % 0.0 mm
19:10 8.7 °C 3.6 °C 1018.8 hPa Calm     70 % 0.0 mm
19:12 13.2 °C 3.6 °C 1015.8 hPa SW 13.0 km/h 13.0 km/h 52 % 0.0 mm
19:17 13.1 °C 3.4 °C 1015.8 hPa SSW 5.6 km/h 5.6 km/h 52 % 0.0 mm
19:20 8.5 °C 3.1 °C 1018.8 hPa WSW 1.6 km/h 1.6 km/h 69 % 0.0 mm
19:22 12.9 °C 3.6 °C 1015.8 hPa West 5.6 km/h 5.6 km/h 53 % 0.0 mm
19:27 12.8 °C 3.4 °C 1015.8 hPa SW 3.7 km/h 3.7 km/h 53 % 0.0 mm
19:30 8.4 °C 3.1 °C 1018.8 hPa Calm   1.6 km/h 69 % 0.0 mm
19:32 12.6 °C 3.3 °C 1015.8 hPa SW 7.4 km/h 7.4 km/h 53 % 0.0 mm
19:37 12.5 °C 3.7 °C 1015.8 hPa WSW 9.0 km/h 9.0 km/h 55 % 0.0 mm
19:40 8.2 °C 3.1 °C 1018.8 hPa Calm     70 % 0.0 mm
19:42 12.4 °C 3.8 °C 1015.8 hPa WSW 5.6 km/h 6.1 km/h 56 % 0.0 mm
19:47 12.2 °C 3.9 °C 1015.8 hPa SW 5.6 km/h 5.6 km/h 57 % 0.0 mm
19:50 8.1 °C 3.2 °C 1018.8 hPa Calm     71 % 0.0 mm
19:52 12.1 °C 4.1 °C 1015.8 hPa SSW 7.4 km/h 7.4 km/h 58 % 0.0 mm
19:57 12.0 °C 4.0 °C 1015.8 hPa West 4.2 km/h 4.2 km/h 58 % 0.0 mm
20:00 8.1 °C 3.2 °C 1018.8 hPa Calm   3.2 km/h 71 % 0.0 mm
20:02 11.9 °C 4.1 °C 1015.8 hPa WSW 5.6 km/h 5.6 km/h 59 % 0.0 mm
20:07 11.8 °C 4.1 °C 1016.8 hPa SW 7.4 km/h 7.4 km/h 59 % 0.0 mm
20:10 8.0 °C 3.1 °C 1018.8 hPa Calm     71 % 0.0 mm
20:12 11.7 °C 4.2 °C 1016.8 hPa West 5.6 km/h 5.8 km/h 60 % 0.0 mm
20:17 11.6 °C 3.8 °C 1016.8 hPa WNW 7.4 km/h 7.4 km/h 59 % 0.0 mm
20:20 7.9 °C 3.2 °C 1018.8 hPa Calm     72 % 0.0 mm
20:22 11.5 °C 3.8 °C 1016.8 hPa WSW 7.4 km/h 7.4 km/h 59 % 0.0 mm
20:27 11.4 °C 3.7 °C 1016.8 hPa WSW 7.4 km/h 7.4 km/h 59 % 0.0 mm
20:30 7.8 °C 3.1 °C 1018.8 hPa Calm   3.2 km/h 72 % 0.0 mm
20:32 11.4 °C 3.7 °C 1016.8 hPa WSW 11.1 km/h 11.1 km/h 59 % 0.0 mm
20:37 11.3 °C 3.3 °C 1017.8 hPa WSW 5.6 km/h 5.6 km/h 58 % 0.0 mm
20:40 7.7 °C 2.6 °C 1018.8 hPa North 1.6 km/h 3.2 km/h 70 % 0.0 mm
20:42 11.2 °C 3.2 °C 1017.8 hPa WSW 7.4 km/h 7.4 km/h 58 % 0.0 mm
20:47 11.2 °C 3.2 °C 1017.8 hPa SW 7.4 km/h 7.4 km/h 58 % 0.0 mm
20:50 7.6 °C 2.5 °C 1018.8 hPa Calm   1.6 km/h 70 % 0.0 mm
20:52 11.1 °C 3.2 °C 1017.8 hPa WSW 3.9 km/h 3.9 km/h 58 % 0.0 mm
20:57 11.0 °C 3.1 °C 1017.8 hPa WSW 5.6 km/h 5.6 km/h 58 % 0.0 mm
21:02 10.9 °C 2.9 °C 1017.8 hPa WSW 5.6 km/h 5.6 km/h 58 % 0.0 mm
21:07 10.8 °C 2.8 °C 1017.8 hPa SW 5.6 km/h 5.6 km/h 58 % 0.0 mm
21:10 7.4 °C 2.3 °C 1018.8 hPa Calm   1.6 km/h 70 % 0.0 mm
21:12 10.8 °C 3.1 °C 1017.8 hPa WSW 5.6 km/h 5.6 km/h 59 % 0.0 mm
21:17 10.7 °C 3.0 °C 1017.8 hPa WSW 6.4 km/h 6.4 km/h 59 % 0.0 mm
21:20 7.4 °C 2.3 °C 1018.8 hPa West 1.6 km/h 1.6 km/h 70 % 0.0 mm
21:22 10.6 °C 2.9 °C 1017.8 hPa SW 7.4 km/h 7.4 km/h 59 % 0.0 mm
21:27 10.6 °C 2.9 °C 1017.8 hPa WSW 5.6 km/h 5.6 km/h 59 % 0.0 mm
21:30 7.3 °C 2.2 °C 1018.8 hPa Calm     70 % 0.0 mm
21:32 10.6 °C 3.2 °C 1017.8 hPa WSW 7.4 km/h 7.4 km/h 60 % 0.0 mm
21:37 10.5 °C 3.1 °C 1017.8 hPa SSW 9.3 km/h 9.3 km/h 60 % 0.0 mm
21:40 7.3 °C 2.4 °C 1018.8 hPa Calm     71 % 0.0 mm
21:42 10.4 °C 2.9 °C 1017.8 hPa WSW 7.4 km/h 7.4 km/h 60 % 0.0 mm
21:47 10.4 °C 2.9 °C 1017.8 hPa WSW 5.6 km/h 5.6 km/h 60 % 0.0 mm
21:50 7.3 °C 2.2 °C 1018.8 hPa Calm   1.6 km/h 70 % 0.0 mm
21:52 10.4 °C 3.2 °C 1017.8 hPa West 5.6 km/h 5.6 km/h 61 % 0.0 mm
21:57 10.3 °C 3.1 °C 1017.8 hPa SW 7.4 km/h 7.4 km/h 61 % 0.0 mm
22:00 7.2 °C 2.1 °C 1018.8 hPa Calm   1.6 km/h 70 % 0.0 mm
22:02 10.2 °C 3.0 °C 1017.8 hPa SW 4.2 km/h 4.2 km/h 61 % 0.0 mm
22:07 10.2 °C 3.0 °C 1017.8 hPa WSW 4.7 km/h 4.7 km/h 61 % 0.0 mm
22:10 6.9 °C 2.0 °C 1018.8 hPa Calm     71 % 0.0 mm
22:12 10.2 °C 3.2 °C 1017.8 hPa SW 5.6 km/h 5.6 km/h 62 % 0.0 mm
22:17 10.2 °C 3.2 °C 1017.8 hPa SW 6.9 km/h 6.9 km/h 62 % 0.0 mm
22:20 6.7 °C 1.8 °C 1018.8 hPa Calm   3.2 km/h 71 % 0.0 mm
22:22 10.2 °C 3.2 °C 1017.8 hPa SW 5.6 km/h 5.6 km/h 62 % 0.0 mm
22:27 10.2 °C 3.2 °C 1017.8 hPa West 5.6 km/h 5.6 km/h 62 % 0.0 mm
22:30 6.6 °C 1.9 °C 1018.8 hPa Calm   1.6 km/h 72 % 0.0 mm
22:32 10.2 °C 3.2 °C 1017.8 hPa WSW 6.1 km/h 6.1 km/h 62 % 0.0 mm
22:37 10.1 °C 3.2 °C 1017.8 hPa WSW 3.7 km/h 3.7 km/h 62 % 0.0 mm
22:40 6.2 °C 1.3 °C 1018.8 hPa SW 3.2 km/h 4.8 km/h 71 % 0.0 mm
22:47 10.1 °C 3.4 °C 1017.8 hPa WSW 3.7 km/h 3.7 km/h 63 % 0.0 mm
22:50 6.1 °C 1.6 °C 1018.8 hPa Calm   4.8 km/h 73 % 0.0 mm
22:52 10.0 °C 3.3 °C 1018.8 hPa SW 1.9 km/h   63 % 0.0 mm
22:57 9.9 °C 3.2 °C 1018.8 hPa WSW 5.6 km/h 5.6 km/h 63 % 0.0 mm
23:00 6.0 °C 1.7 °C 1018.8 hPa Calm     74 % 0.0 mm
23:02 9.9 °C 3.2 °C 1018.8 hPa SW 1.9 km/h 1.9 km/h 63 % 0.0 mm
23:07 9.8 °C 3.1 °C 1018.8 hPa WSW 3.7 km/h 3.7 km/h 63 % 0.0 mm
23:10 6.2 °C 1.9 °C 1018.8 hPa SW 1.6 km/h 1.6 km/h 74 % 0.0 mm
23:12 9.9 °C 3.2 °C 1018.8 hPa West 7.4 km/h 7.4 km/h 63 % 0.0 mm
23:17 9.9 °C 3.2 °C 1018.8 hPa West 3.7 km/h 3.7 km/h 63 % 0.0 mm
23:20 6.3 °C 2.0 °C 1018.8 hPa Calm   1.6 km/h 74 % 0.0 mm
23:22 9.9 °C 3.2 °C 1017.8 hPa WSW 3.7 km/h 3.7 km/h 63 % 0.0 mm
23:27 9.8 °C 3.3 °C 1017.8 hPa WSW 3.7 km/h 3.7 km/h 64 % 0.0 mm
23:30 6.4 °C 2.1 °C 1018.8 hPa Calm   1.6 km/h 74 % 0.0 mm
23:32 9.7 °C 3.2 °C 1017.8 hPa SW 2.6 km/h 3.2 km/h 64 % 0.0 mm
23:37 9.6 °C 3.3 °C 1018.8 hPa West 2.3 km/h 2.3 km/h 65 % 0.0 mm
23:40 6.3 °C 1.6 °C 1018.8 hPa South 1.6 km/h 3.2 km/h 72 % 0.0 mm
23:42 9.6 °C 3.3 °C 1018.8 hPa SW 3.7 km/h 3.7 km/h 65 % 0.0 mm
23:47 9.6 °C 3.3 °C 1018.8 hPa West 5.0 km/h 5.0 km/h 65 % 0.0 mm
23:50 6.3 °C 2.0 °C 1018.8 hPa Calm   3.2 km/h 74 % 0.0 mm
23:52 9.6 °C 3.6 °C 1018.8 hPa SW 2.3 km/h 2.3 km/h 66 % 0.0 mm
23:57 9.6 °C 3.6 °C 1018.8 hPa WSW 5.6 km/h 5.6 km/h 66 % 0.0 mm
Meteo Sesrovires
Elogis d' Weather Underground - 3.5 mb

Guio original per  Jim McMurry - jmcmurry@mwt.net Adaptat per a la plantilla per  Wim van der Kuil - Leuven-Template.eu

Trobareu la nostra informacio del temps tambe a:

Weather Underground

AWEKAS